Impacts TAF Board INFO
FOR SITUATIONAL AWARENESS. NOT TO BE USED FOR FLIGHT PLANNING PURPOSES.
IDs:

KSFO - San Francisco Intl, CA, US

Issued at 1502 UTC 22 Jul 2017
Updated at 1637 UTC 22 Jul 2017
Potential Impact None Slight Moderate High
Time1556Z 22/17Z 22/18Z 22/19Z 22/20Z 22/21Z 22/22Z 22/23Z 23/00Z 23/01Z 23/02Z 23/03Z 23/04Z 23/05Z>>
Type OBS PRVL PRVL PRVL PRVL PRVL PRVL PRVL PRVL PRVL PRVL PRVL PRVL PRVL
VIS 10 >6 >6 >6 >6 >6 >6 >6 >6 >6 >6 >6 >6 >6
CIG -- -- -- -- -- -- -- -- -- -- -- -- -- --
Cover CLR SKC SKC SKC SKC SKC SKC SKC SKC SKC SKC SKC FEW FEW
FltCat VFR VFR VFR VFR VFR VFR VFR VFR VFR VFR VFR VFR VFR VFR
WX -- -- -- -- -- -- -- -- -- -- -- -- -- --
WDir 50 280 280 280 290 290 290 290 290 290 290 290 290 290
WSpd 4 5 5 5 15 15 15 15 15 15 15 15 13 13
WGst -- -- -- -- 22 22 22 22 22 22 22 22 -- --

Raw TAF
KSFO 221502Z 2215/2318 28005KT P6SM SKC
  FM222000 29015G22KT P6SM SKC
  FM230400 29013KT P6SM FEW010
  FM230800 29008KT P6SM SCT010
  FM231500 28004KT P6SM FEW010


Raw METAR
KSFO 221556Z 05004KT 10SM CLR 18/13 A2994 RMK AO2 SLP139 T01780128
KSFO 221456Z 00000KT 10SM CLR 16/11 A2994 RMK AO2 SLP138 T01610111 53009
KSFO 221356Z 00000KT 10SM FEW011 14/11 A2993 RMK AO2 SLP134 T01390111

METAR Board
Radar Display
Forecast Discussion

FOR SITUATIONAL AWARENESS. NOT TO BE USED FOR FLIGHT PLANNING PURPOSES.